Time;durP1;ratioP1;P1;durP2;ratioP2;P2;SDS_P1;SDS_P2;PMS_P1;PMS_P2;Temp;Humidity;BMP_temperature;BMP_pressure;BME280_temperature;BME280_humidity;BME280_pressure;Samples;Min_cycle;Max_cycle;Signal;HPM_P1;HPM_P2
2022/11/15 00:00:57;;;;;;;54.00;33.70;;;;;;;3.37;100.00;99770.20;436026;1280;142206;-62
2022/11/15 00:11:04;;;;;;;53.00;32.40;;;;;;;3.38;100.00;99760.15;436042;1279;142470;-61
2022/11/15 00:21:13;;;;;;;54.90;32.30;;;;;;;3.38;100.00;99755.83;426312;1281;143567;-61
2022/11/15 00:31:19;;;;;;;46.70;31.40;;;;;;;3.29;100.00;99744.16;436000;1289;143395;-62
2022/11/15 00:41:25;;;;;;;58.40;32.80;;;;;;;3.21;100.00;99737.83;432555;1282;145152;-62
2022/11/15 00:51:30;;;;;;;58.70;32.60;;;;;;;3.18;100.00;99729.80;429163;1285;144330;-62
2022/11/15 01:01:36;;;;;;;49.40;32.80;;;;;;;3.13;100.00;99718.20;430844;1283;143172;-62
2022/11/15 01:11:42;;;;;;;57.00;33.10;;;;;;;3.07;100.00;99708.17;418606;1284;143250;-60
2022/11/15 01:21:51;;;;;;;53.70;33.30;;;;;;;2.99;100.00;99693.88;421365;1275;144158;-61
2022/11/15 01:31:57;;;;;;;59.10;32.50;;;;;;;2.97;100.00;99681.52;422109;1283;146517;-60
2022/11/15 01:42:03;;;;;;;51.10;33.30;;;;;;;2.95;100.00;99668.42;422165;1278;142499;-61
2022/11/15 01:52:14;;;;;;;51.30;28.80;;;;;;;2.96;100.00;99651.61;421336;1277;144272;-61
2022/11/15 02:02:20;;;;;;;58.60;32.90;;;;;;;2.97;100.00;99639.30;419857;1281;144785;-61
2022/11/15 02:12:26;;;;;;;45.20;28.90;;;;;;;2.98;100.00;99627.34;418852;1278;146233;-59
2022/11/15 02:22:45;;;;;;;49.00;27.20;;;;;;;2.96;100.00;99627.93;422846;1275;147264;-62
2022/11/15 02:32:58;;;;;;;47.40;27.40;;;;;;;2.94;100.00;99617.77;421477;1275;143599;-60
2022/11/15 02:53:33;;;;;;;44.60;25.30;;;;;;;2.96;100.00;99605.80;420467;1277;144012;-61
2022/11/15 03:03:57;;;;;;;46.70;24.80;;;;;;;2.98;100.00;99600.02;419353;1277;199660;-61
2022/11/15 03:14:09;;;;;;;38.10;22.90;;;;;;;3.00;100.00;99584.91;421367;1277;143267;-61
2022/11/15 03:24:18;;;;;;;38.70;25.30;;;;;;;3.03;100.00;99587.04;423803;1278;143486;-62
2022/11/15 03:34:33;;;;;;;36.40;23.00;;;;;;;3.02;100.00;99580.69;420437;1277;142913;-60
2022/11/15 03:44:47;;;;;;;36.90;23.90;;;;;;;3.03;100.00;99572.37;421750;1278;160661;-61
2022/11/15 03:54:56;;;;;;;39.00;22.10;;;;;;;2.99;100.00;99567.13;424659;1277;198860;-61
2022/11/15 04:05:02;;;;;;;31.30;20.20;;;;;;;2.99;100.00;99561.57;422920;1277;141845;-61
2022/11/15 04:15:11;;;;;;;37.60;22.00;;;;;;;2.96;100.00;99552.70;421282;1277;142004;-62
2022/11/15 04:25:17;;;;;;;30.10;18.50;;;;;;;2.94;100.00;99542.38;422718;1277;142667;-61
2022/11/15 04:35:27;;;;;;;32.90;20.70;;;;;;;2.90;100.00;99524.70;421199;1276;143287;-60
2022/11/15 04:45:33;;;;;;;34.20;20.20;;;;;;;2.92;100.00;99521.35;419688;1276;142786;-61
2022/11/15 04:55:39;;;;;;;40.70;23.40;;;;;;;2.92;100.00;99515.99;421814;1277;142216;-61
2022/11/15 05:05:45;;;;;;;44.10;25.80;;;;;;;2.90;100.00;99508.63;422051;1277;147331;-61
2022/11/15 05:15:50;;;;;;;37.40;24.60;;;;;;;2.87;100.00;99510.93;420317;1277;142407;-61
2022/11/15 05:26:01;;;;;;;41.00;22.80;;;;;;;2.89;100.00;99508.48;419111;1278;143143;-61
2022/11/15 05:36:18;;;;;;;40.80;24.10;;;;;;;2.91;100.00;99504.79;418391;1278;146489;-61
2022/11/15 05:46:24;;;;;;;40.10;24.20;;;;;;;2.93;100.00;99495.87;419574;1277;143587;-61
2022/11/15 05:56:31;;;;;;;33.10;20.50;;;;;;;2.91;100.00;99491.98;419845;1277;143928;-61
2022/11/15 06:06:37;;;;;;;37.50;19.10;;;;;;;2.88;100.00;99487.56;420735;1284;211137;-60
2022/11/15 06:16:42;;;;;;;34.00;19.90;;;;;;;2.88;100.00;99484.98;425509;1283;143810;-62
2022/11/15 06:26:48;;;;;;;31.90;21.60;;;;;;;2.91;100.00;99480.92;421239;1277;144449;-62
2022/11/15 06:36:53;;;;;;;36.50;21.90;;;;;;;2.93;100.00;99473.77;435769;1276;142603;-60
2022/11/15 06:46:59;;;;;;;36.20;21.10;;;;;;;3.02;100.00;99473.44;432844;1290;143472;-61
2022/11/15 06:57:06;;;;;;;50.20;28.20;;;;;;;3.14;100.00;99481.34;435252;1284;141834;-61
2022/11/15 07:07:11;;;;;;;41.80;26.40;;;;;;;3.23;100.00;99481.02;436180;1282;145024;-61
2022/11/15 07:17:17;;;;;;;44.00;27.10;;;;;;;3.37;100.00;99480.17;431681;1277;143268;-62
2022/11/15 07:27:23;;;;;;;36.50;25.40;;;;;;;3.62;100.00;99479.63;435482;1281;198684;-61
2022/11/15 07:37:28;;;;;;;31.30;22.30;;;;;;;4.01;100.00;99477.33;436231;1284;145267;-63
2022/11/15 07:47:34;;;;;;;28.60;19.70;;;;;;;4.35;100.00;99484.80;435479;1283;143719;-62
2022/11/15 07:57:40;;;;;;;28.40;20.60;;;;;;;4.84;100.00;99470.35;436218;1291;143523;-61
2022/11/15 08:07:46;;;;;;;25.10;19.40;;;;;;;5.89;100.00;99455.48;436283;1276;142584;-62
2022/11/15 08:17:56;;;;;;;26.40;21.50;;;;;;;7.46;100.00;99453.13;431647;1283;142495;-62
2022/11/15 08:28:03;;;;;;;21.30;17.30;;;;;;;9.26;98.36;99443.34;436279;1283;145674;-62
2022/11/15 08:38:08;;;;;;;21.20;18.20;;;;;;;11.68;94.98;99427.14;436254;1284;143171;-61
2022/11/15 08:48:14;;;;;;;18.80;16.80;;;;;;;14.83;89.78;99412.91;435534;1284;143600;-61
2022/11/15 08:58:20;;;;;;;18.40;15.90;;;;;;;17.40;83.95;99397.06;436229;1283;143498;-61
2022/11/15 09:08:26;;;;;;;18.50;16.80;;;;;;;19.51;79.14;99387.41;436087;1283;142603;-61
2022/11/15 09:18:53;;;;;;;15.40;13.80;;;;;;;19.98;73.79;99377.89;430884;1277;142712;-61
2022/11/15 09:28:58;;;;;;;16.40;14.70;;;;;;;18.13;72.38;99381.05;436229;1291;143630;-60
2022/11/15 09:39:04;;;;;;;19.00;15.20;;;;;;;15.13;73.58;99376.53;435556;1284;142832;-61
2022/11/15 09:49:14;;;;;;;18.30;16.30;;;;;;;13.25;74.56;99368.43;436320;1284;143899;-61
2022/11/15 09:59:32;;;;;;;24.30;15.70;;;;;;;12.07;75.55;99355.88;436306;1284;141854;-61
2022/11/15 10:09:44;;;;;;;19.60;16.00;;;;;;;11.17;76.26;99342.34;435897;1282;142550;-61
2022/11/15 10:19:58;;;;;;;18.40;16.40;;;;;;;10.55;77.38;99336.05;432336;1283;140960;-61
2022/11/15 10:30:15;;;;;;;19.30;16.90;;;;;;;10.09;77.94;99327.23;435528;1280;143272;-61
2022/11/15 10:40:24;;;;;;;18.60;15.70;;;;;;;9.70;78.75;99307.86;436267;1280;143487;-60
2022/11/15 10:50:33;;;;;;;17.50;15.10;;;;;;;9.46;79.52;99295.43;436210;1280;142400;-61
2022/11/15 11:00:40;;;;;;;19.10;15.10;;;;;;;9.39;80.08;99283.42;435713;1290;212332;-61
2022/11/15 11:10:55;;;;;;;17.90;16.00;;;;;;;9.38;80.45;99274.80;430473;1277;142391;-61
2022/11/15 11:21:15;;;;;;;16.60;14.20;;;;;;;9.34;80.88;99267.34;430960;1288;145298;-61
2022/11/15 11:31:33;;;;;;;20.80;17.40;;;;;;;9.35;81.09;99255.57;434937;1285;142987;-61
2022/11/15 11:41:50;;;;;;;17.70;15.40;;;;;;;9.37;81.36;99246.54;435494;1284;164537;-62
2022/11/15 11:52:01;;;;;;;20.90;16.30;;;;;;;9.40;81.67;99238.13;436312;1284;143103;-61
2022/11/15 12:02:17;;;;;;;22.10;15.70;;;;;;;9.46;82.07;99231.15;427781;1281;143397;-61
2022/11/15 12:12:28;;;;;;;18.00;14.80;;;;;;;9.48;82.09;99218.23;435493;1291;143756;-61
2022/11/15 12:22:42;;;;;;;19.20;15.70;;;;;;;9.48;82.04;99199.73;436170;1290;142990;-60
2022/11/15 12:32:57;;;;;;;19.50;16.30;;;;;;;9.50;82.24;99189.62;435488;1289;144642;-62
2022/11/15 12:43:18;;;;;;;23.30;16.30;;;;;;;9.54;82.35;99180.80;436255;1284;142575;-61
2022/11/15 12:53:32;;;;;;;17.50;15.50;;;;;;;9.54;82.16;99173.64;432465;1280;142540;-61
2022/11/15 13:04:13;;;;;;;18.50;16.00;;;;;;;9.48;82.19;99165.83;435790;1284;212699;-62
2022/11/15 13:14:56;;;;;;;18.00;15.00;;;;;;;9.43;82.27;99160.95;436255;1288;143680;-62
2022/11/15 13:25:03;;;;;;;18.60;15.00;;;;;;;9.39;82.35;99156.08;435808;1290;199536;-60
2022/11/15 13:35:09;;;;;;;20.00;15.40;;;;;;;9.33;82.58;99151.28;436276;1280;144896;-60
2022/11/15 13:45:18;;;;;;;23.60;15.60;;;;;;;9.24;82.68;99144.87;435538;1280;145611;-62
2022/11/15 13:55:25;;;;;;;24.80;15.50;;;;;;;9.12;82.90;99136.55;436301;1291;143043;-61
2022/11/15 14:05:32;;;;;;;31.30;17.60;;;;;;;8.93;83.12;99131.67;436210;1289;143883;-61
2022/11/15 14:15:40;;;;;;;20.10;15.10;;;;;;;8.69;83.42;99119.72;434077;1280;143678;-60
2022/11/15 14:25:55;;;;;;;17.30;14.60;;;;;;;8.44;83.76;99124.26;436248;1284;145842;-62
2022/11/15 14:36:06;;;;;;;19.80;16.50;;;;;;;8.16;84.14;99114.47;435518;1281;144266;-61
2022/11/15 14:46:12;;;;;;;22.10;18.50;;;;;;;7.84;84.79;99104.54;436252;1284;142005;-61
2022/11/15 14:56:18;;;;;;;25.80;20.80;;;;;;;7.50;85.21;99092.05;436175;1282;143078;-61
2022/11/15 15:06:24;;;;;;;57.20;22.20;;;;;;;7.10;85.86;99079.55;435322;1287;145222;-61
2022/11/15 15:16:29;;;;;;;90.30;30.30;;;;;;;6.76;86.55;99078.87;434606;1282;142988;-62
2022/11/15 15:26:36;;;;;;;73.10;27.20;;;;;;;6.42;87.13;99078.86;435410;1284;144839;-63
2022/11/15 15:36:42;;;;;;;85.10;25.80;;;;;;;6.04;87.59;99084.33;436064;1282;144261;-61
2022/11/15 15:46:47;;;;;;;61.00;35.20;;;;;;;5.69;88.09;99089.27;436060;1283;143198;-61
2022/11/15 15:56:53;;;;;;;114.20;33.30;;;;;;;5.48;89.22;99082.02;435467;1277;142789;-61
2022/11/15 16:07:02;;;;;;;96.90;42.00;;;;;;;5.18;89.30;99081.25;436191;1288;143620;-62
2022/11/15 16:17:11;;;;;;;74.80;38.00;;;;;;;4.94;89.98;99083.45;428327;1277;142839;-62
2022/11/15 16:27:19;;;;;;;73.70;36.70;;;;;;;4.67;90.16;99081.11;435444;1284;182280;-61
2022/11/15 16:37:25;;;;;;;55.70;36.50;;;;;;;4.50;91.45;99077.55;436202;1280;142054;-61
2022/11/15 16:47:31;;;;;;;53.60;38.20;;;;;;;4.48;92.87;99072.44;436199;1282;142821;-61
2022/11/15 16:57:37;;;;;;;107.10;61.20;;;;;;;4.48;93.59;99065.89;435777;1283;143126;-60
2022/11/15 17:07:44;;;;;;;89.80;56.30;;;;;;;4.34;93.59;99066.33;434478;1284;144151;-60
2022/11/15 17:17:54;;;;;;;65.70;40.70;;;;;;;4.21;93.99;99064.34;419843;1277;143128;-60
2022/11/15 17:28:00;;;;;;;62.60;42.50;;;;;;;4.09;95.10;99053.30;419956;1278;146019;-62
2022/11/15 17:38:06;;;;;;;62.80;42.70;;;;;;;3.99;96.02;99052.50;422242;1278;143372;-61
2022/11/15 17:48:11;;;;;;;78.90;46.10;;;;;;;3.79;96.18;99041.45;419464;1278;145567;-61
2022/11/15 17:58:17;;;;;;;73.70;45.40;;;;;;;3.61;96.62;99038.10;435452;1283;143136;-61
2022/11/15 18:08:23;;;;;;;73.30;47.00;;;;;;;3.60;97.36;99037.09;435285;1283;143450;-61
2022/11/15 18:18:29;;;;;;;71.30;44.80;;;;;;;3.69;97.56;99029.76;434563;1284;143597;-62
2022/11/15 18:28:37;;;;;;;69.50;43.20;;;;;;;3.81;97.94;99023.89;435202;1273;153981;-61
2022/11/15 18:38:43;;;;;;;56.70;39.60;;;;;;;3.85;98.19;99014.34;434665;1285;143228;-61
2022/11/15 18:48:50;;;;;;;60.60;38.70;;;;;;;3.73;98.52;99003.98;435495;1281;170761;-61
2022/11/15 18:58:55;;;;;;;;;;;;;;;3.68;98.44;99011.31;435927;1286;200185;-61
2022/11/15 19:09:01;;;;;;;52.00;34.10;;;;;;;3.61;98.76;99016.80;430483;1277;130385;-62
2022/11/15 19:19:11;;;;;;;47.80;31.90;;;;;;;3.59;99.20;99017.43;421267;1281;143726;-61
2022/11/15 19:29:17;;;;;;;57.00;34.80;;;;;;;3.57;99.48;99019.91;435574;1282;145465;-62
2022/11/15 19:39:23;;;;;;;49.70;35.00;;;;;;;3.54;99.74;99010.55;434775;1283;144024;-61
2022/11/15 19:49:29;;;;;;;48.20;31.90;;;;;;;3.56;99.66;99003.55;432800;1284;143512;-60
2022/11/15 19:59:34;;;;;;;49.10;31.00;;;;;;;3.48;99.72;99001.10;426924;1284;143616;-63
2022/11/15 20:09:40;;;;;;;52.60;31.90;;;;;;;3.36;99.96;98998.33;419419;1275;144645;-63
2022/11/15 20:19:46;;;;;;;51.70;32.70;;;;;;;3.32;100.00;99001.65;423200;1277;143914;-62
2022/11/15 20:29:53;;;;;;;44.20;25.80;;;;;;;3.27;100.00;99006.69;433180;1284;143196;-62
2022/11/15 20:39:59;;;;;;;44.70;26.20;;;;;;;3.26;100.00;98998.27;435854;1276;146066;-63
2022/11/15 20:50:05;;;;;;;52.20;29.50;;;;;;;3.30;100.00;98981.64;435867;1285;143117;-64
2022/11/15 21:00:31;;;;;;;51.60;29.60;;;;;;;3.31;100.00;98970.72;435260;1274;144373;-63
2022/11/15 21:21:05;;;;;;;63.20;31.30;;;;;;;3.49;100.00;98971.30;434361;1283;145067;-63
2022/11/15 21:31:11;;;;;;;48.90;28.70;;;;;;;3.59;100.00;98953.58;435995;1281;143313;-62
2022/11/15 21:41:17;;;;;;;54.70;30.50;;;;;;;3.64;100.00;98945.71;435978;1277;143126;-63
2022/11/15 21:51:23;;;;;;;50.10;27.30;;;;;;;3.68;100.00;98945.18;435344;1283;198407;-62
2022/11/15 22:12:01;;;;;;;53.80;30.00;;;;;;;3.75;100.00;98926.17;435018;1283;142645;-61
2022/11/15 22:22:07;;;;;;;53.70;29.50;;;;;;;3.81;100.00;98931.44;435856;1285;187068;-63
2022/11/15 22:32:13;;;;;;;56.40;29.80;;;;;;;3.86;100.00;98921.81;435811;1277;144942;-66
2022/11/15 22:42:19;;;;;;;52.50;28.10;;;;;;;3.93;100.00;98912.52;435339;1283;143868;-63
2022/11/15 22:52:28;;;;;;;51.00;27.30;;;;;;;3.90;100.00;98908.81;435985;1277;143447;-63
2022/11/15 23:02:35;;;;;;;47.50;25.30;;;;;;;3.85;100.00;98890.89;435362;1283;145078;-62
2022/11/15 23:23:04;;;;;;;51.20;25.30;;;;;;;3.79;100.00;98887.36;435828;1284;145321;-61
2022/11/15 23:43:37;;;;;;;38.10;20.90;;;;;;;3.72;100.00;98884.77;434412;1284;144972;-63
2022/11/15 23:53:44;;;;;;;40.50;22.20;;;;;;;3.66;100.00;98882.80;427515;1281;147357;-62
